Time;durP1;ratioP1;P1;durP2;ratioP2;P2;SDS_P1;SDS_P2;PMS_P1;PMS_P2;Temp;Humidity;BMP_temperature;BMP_pressure;BME280_temperature;BME280_humidity;BME280_pressure;Samples;Min_cycle;Max_cycle;Signal;HPM_P1;HPM_P2
2023/07/04 00:00:19;;;;;;;7.50;5.07;;;;;;;21.08;100.00;101171.50;2070836;28;20777;-68
2023/07/04 00:01:24;;;;;;;7.37;4.70;;;;;;;21.06;100.00;101177.63;2072598;28;20797;-68
2023/07/04 00:02:25;;;;;;;7.23;4.90;;;;;;;21.05;100.00;101184.53;2072104;28;20675;-68
2023/07/04 00:03:27;;;;;;;6.83;5.30;;;;;;;21.04;100.00;101177.31;2072331;28;20833;-68
2023/07/04 00:04:29;;;;;;;6.93;4.90;;;;;;;21.00;100.00;101170.34;2071362;28;20732;-68
2023/07/04 00:05:30;;;;;;;7.73;5.07;;;;;;;20.79;100.00;101158.25;2073855;28;20455;-68
2023/07/04 00:06:32;;;;;;;8.83;4.80;;;;;;;20.98;100.00;101181.34;2078570;28;20487;-68
2023/07/04 00:07:32;;;;;;;9.13;5.50;;;;;;;20.78;100.00;101156.69;2072229;28;20236;-68
2023/07/04 00:08:33;;;;;;;7.00;5.13;;;;;;;20.89;100.00;101181.44;2072912;28;20486;-68
2023/07/04 00:09:34;;;;;;;6.57;4.87;;;;;;;20.88;100.00;101185.53;2072274;28;20675;-68
2023/07/04 00:10:37;;;;;;;5.93;4.80;;;;;;;20.90;100.00;101177.38;2072019;28;20838;-68
2023/07/04 00:11:37;;;;;;;9.10;5.20;;;;;;;20.51;100.00;101120.44;2072038;28;20288;-68
2023/07/04 00:12:37;;;;;;;6.00;4.50;;;;;;;20.38;100.00;101102.31;2072286;28;20440;-68
2023/07/04 00:13:39;;;;;;;9.00;4.93;;;;;;;20.91;100.00;101178.91;2071521;28;20189;-68
2023/07/04 00:14:39;;;;;;;8.07;4.70;;;;;;;20.50;100.00;101120.91;2071183;28;20197;-68
2023/07/04 00:15:48;;;;;;;6.40;4.83;;;;;;;20.82;100.00;101174.16;2071524;28;20725;-68
2023/07/04 00:16:48;;;;;;;7.07;5.13;;;;;;;20.86;100.00;101173.94;2072118;28;20288;-68
2023/07/04 00:17:50;;;;;;;8.53;4.53;;;;;;;20.88;100.00;101191.16;2072229;28;20489;-68
2023/07/04 00:18:50;;;;;;;7.17;5.10;;;;;;;20.86;100.00;101188.03;2072736;28;20651;-68
2023/07/04 00:19:51;;;;;;;9.10;5.50;;;;;;;20.81;100.00;101186.69;2072328;28;20970;-69
2023/07/04 00:20:54;;;;;;;9.27;5.10;;;;;;;20.79;100.00;101182.81;2078395;28;20670;-68
2023/07/04 00:21:55;;;;;;;7.27;5.30;;;;;;;20.78;100.00;101181.28;2080027;28;20724;-68
2023/07/04 00:22:56;;;;;;;8.10;4.80;;;;;;;20.73;100.00;101181.97;2075532;28;20483;-68
2023/07/04 00:23:56;;;;;;;9.73;5.33;;;;;;;20.73;100.00;101182.72;2072319;28;20440;-68
2023/07/04 00:24:57;;;;;;;11.40;5.63;;;;;;;20.72;100.00;101184.00;2071724;28;20254;-68
2023/07/04 00:25:57;;;;;;;9.80;5.30;;;;;;;20.05;100.00;101091.25;2072141;28;20690;-68
2023/07/04 00:26:58;;;;;;;7.90;5.10;;;;;;;20.40;100.00;101142.00;2072192;28;20181;-68
2023/07/04 00:27:58;;;;;;;8.87;5.60;;;;;;;20.68;100.00;101186.22;2072891;28;20256;-68
2023/07/04 00:28:59;;;;;;;10.47;5.63;;;;;;;20.70;100.00;101186.53;2078379;28;20193;-68
2023/07/04 00:29:59;;;;;;;11.70;5.70;;;;;;;20.60;100.00;101173.03;2074153;28;20651;-68
2023/07/04 00:31:03;;;;;;;8.10;5.10;;;;;;;20.70;100.00;101182.94;2075809;28;20681;-68
2023/07/04 00:32:04;;;;;;;8.57;4.90;;;;;;;20.67;100.00;101179.03;2076204;28;20208;-68
2023/07/04 00:33:05;;;;;;;9.40;4.90;;;;;;;20.65;100.00;101186.44;2075307;28;20446;-68
2023/07/04 00:34:05;;;;;;;10.30;5.97;;;;;;;20.66;100.00;101185.16;2078012;28;20956;-68
2023/07/04 00:35:06;;;;;;;11.87;6.00;;;;;;;20.48;100.00;101169.28;2071778;28;20233;-68
2023/07/04 00:36:10;;;;;;;12.47;5.77;;;;;;;20.66;100.00;101191.56;2072020;28;20181;-68
2023/07/04 00:37:12;;;;;;;9.83;6.00;;;;;;;20.15;100.00;101120.88;2072192;28;20460;-68
2023/07/04 00:38:13;;;;;;;9.50;5.90;;;;;;;20.66;100.00;101190.78;2071851;28;20547;-68
2023/07/04 00:39:13;;;;;;;10.47;5.97;;;;;;;20.63;100.00;101189.72;2072035;28;20456;-68
2023/07/04 00:40:15;;;;;;;13.47;5.30;;;;;;;20.64;100.00;101187.69;2073125;28;21020;-68
2023/07/04 00:41:22;;;;;;;8.53;5.40;;;;;;;20.62;100.00;101188.19;2076070;28;20186;-68
2023/07/04 00:42:24;;;;;;;9.57;5.20;;;;;;;20.32;100.00;101152.88;2071921;28;20447;-68
2023/07/04 00:43:25;;;;;;;10.90;5.43;;;;;;;20.58;100.00;101196.03;2071357;28;20451;-68
2023/07/04 00:44:30;;;;;;;10.60;6.00;;;;;;;20.12;100.00;101121.81;2071735;28;20477;-68
2023/07/04 00:45:42;;;;;;;10.73;6.07;;;;;;;20.55;100.00;101202.66;2072670;28;20249;-68
2023/07/04 00:46:53;;;;;;;7.87;5.63;;;;;;;20.58;100.00;101195.28;2078401;28;20400;-68
2023/07/04 00:48:00;;;;;;;9.90;5.50;;;;;;;20.55;100.00;101190.63;2072066;28;20416;-68
2023/07/04 00:49:00;;;;;;;8.40;5.60;;;;;;;20.53;100.00;101208.00;2071932;28;20423;-68
2023/07/04 00:50:07;;;;;;;12.83;5.80;;;;;;;20.28;100.00;101162.78;2071642;28;20937;-68
2023/07/04 00:51:09;;;;;;;9.73;5.97;;;;;;;20.50;100.00;101196.94;2072314;28;20178;-68
2023/07/04 00:52:11;;;;;;;9.90;5.63;;;;;;;19.87;100.00;101108.34;2080602;28;20491;-68
2023/07/04 00:53:14;;;;;;;12.67;6.20;;;;;;;20.47;100.00;101200.75;2072031;28;20514;-68
2023/07/04 00:54:20;;;;;;;14.30;5.70;;;;;;;19.83;100.00;101115.41;2072073;28;20437;-68
2023/07/04 00:55:21;;;;;;;13.90;5.37;;;;;;;20.40;100.00;101201.91;2071737;28;20842;-68
2023/07/04 00:56:25;;;;;;;9.50;5.47;;;;;;;20.26;100.00;101176.56;2072226;28;20476;-68
2023/07/04 00:57:31;;;;;;;9.43;5.57;;;;;;;20.42;100.00;101199.38;2071634;28;20703;-68
2023/07/04 00:58:31;;;;;;;12.73;5.53;;;;;;;20.43;100.00;101194.53;2076100;28;21005;-68
2023/07/04 00:59:43;;;;;;;9.43;5.80;;;;;;;20.43;100.00;101195.31;2079552;28;20846;-68
2023/07/04 01:00:44;;;;;;;12.43;5.77;;;;;;;20.46;100.00;101196.38;2076188;28;20224;-68
2023/07/04 01:01:44;;;;;;;10.30;5.80;;;;;;;20.46;100.00;101202.00;2072005;28;20945;-68
2023/07/04 01:02:48;;;;;;;13.13;5.63;;;;;;;19.93;100.00;101112.03;2071438;28;20176;-68
2023/07/04 01:03:48;;;;;;;12.40;6.07;;;;;;;20.51;100.00;101198.47;2071758;28;20169;-68
2023/07/04 01:04:52;;;;;;;18.07;5.60;;;;;;;20.51;100.00;101202.09;2072093;28;20444;-68
2023/07/04 01:06:00;;;;;;;14.03;6.10;;;;;;;20.53;100.00;101188.28;2072673;28;20193;-68
2023/07/04 01:07:36;;;;;;;12.03;5.73;;;;;;;20.54;100.00;101187.03;2072714;28;20437;-68
2023/07/04 01:08:41;;;;;;;11.93;5.40;;;;;;;20.22;100.00;101136.59;2075027;28;20559;-68
2023/07/04 01:09:47;;;;;;;14.03;6.20;;;;;;;20.53;100.00;101188.28;2078068;28;20928;-68
2023/07/04 01:10:49;;;;;;;16.00;5.67;;;;;;;20.57;100.00;101190.91;2071958;28;20499;-68
2023/07/04 01:11:52;;;;;;;13.03;5.77;;;;;;;20.59;100.00;101194.81;2077970;28;20431;-68
2023/07/04 01:12:53;;;;;;;10.40;5.43;;;;;;;20.38;100.00;101156.56;2072511;28;20417;-68
2023/07/04 01:13:53;;;;;;;8.90;5.23;;;;;;;20.64;100.00;101194.13;2072003;28;20464;-68
2023/07/04 01:14:53;;;;;;;11.70;5.20;;;;;;;20.65;100.00;101194.88;2076214;28;20189;-68
2023/07/04 01:15:54;;;;;;;7.97;5.40;;;;;;;20.64;100.00;101198.97;2074200;28;20272;-68
2023/07/04 01:16:54;;;;;;;11.37;5.37;;;;;;;20.20;100.00;101145.50;2071914;28;20206;-68
2023/07/04 01:17:56;;;;;;;11.93;5.40;;;;;;;20.56;100.00;101204.22;2075154;28;20176;-68
2023/07/04 01:18:58;;;;;;;8.87;4.87;;;;;;;20.32;100.00;101166.94;2079230;28;20662;-68
2023/07/04 01:20:01;;;;;;;7.13;4.63;;;;;;;20.48;100.00;101202.28;2078220;28;20546;-68
2023/07/04 01:21:05;;;;;;;7.00;4.80;;;;;;;20.04;100.00;101136.75;2071580;28;20447;-68
2023/07/04 01:22:19;;;;;;;6.93;5.33;;;;;;;20.48;100.00;101199.47;2071628;28;20971;-69
2023/07/04 01:23:42;;;;;;;8.57;5.13;;;;;;;20.49;100.00;101193.34;2071598;28;20404;-68
2023/07/04 01:24:52;;;;;;;8.13;5.10;;;;;;;20.41;100.00;101195.00;2078357;28;20455;-68
2023/07/04 01:26:09;;;;;;;8.07;4.80;;;;;;;20.39;100.00;101202.38;2074910;28;20451;-68
2023/07/04 01:27:11;;;;;;;7.50;4.87;;;;;;;20.30;100.00;101182.75;2076017;28;20436;-69
2023/07/04 01:28:13;;;;;;;9.33;5.73;;;;;;;20.39;100.00;101205.19;2071903;28;20475;-68
2023/07/04 01:29:15;;;;;;;7.80;4.77;;;;;;;20.39;100.00;101197.53;2073806;28;20436;-68
2023/07/04 01:30:17;;;;;;;10.80;4.93;;;;;;;20.39;100.00;101203.16;2078431;28;20952;-68
2023/07/04 01:31:20;;;;;;;8.53;5.40;;;;;;;20.39;100.00;101202.38;2077658;28;20428;-68
2023/07/04 01:32:22;;;;;;;7.80;4.73;;;;;;;20.20;100.00;101173.66;2072401;28;20433;-69
2023/07/04 01:33:24;;;;;;;12.87;5.37;;;;;;;20.41;100.00;101208.31;2071813;28;20522;-68
2023/07/04 01:34:25;;;;;;;11.30;5.50;;;;;;;20.44;100.00;101205.31;2071657;28;20448;-68
2023/07/04 01:35:27;;;;;;;10.30;5.37;;;;;;;20.44;100.00;101207.34;2071428;28;20467;-68
2023/07/04 01:36:30;;;;;;;12.87;5.20;;;;;;;19.89;100.00;101119.09;2076706;28;20704;-68
2023/07/04 01:37:31;;;;;;;11.27;5.10;;;;;;;20.25;100.00;101175.78;2080030;28;20443;-68
2023/07/04 01:38:31;;;;;;;8.30;5.57;;;;;;;19.49;100.00;101049.34;2076607;28;20455;-68
2023/07/04 01:39:31;;;;;;;7.93;4.90;;;;;;;20.47;100.00;101197.91;2071202;28;20177;-68
2023/07/04 01:40:34;;;;;;;7.93;5.20;;;;;;;20.48;100.00;101202.28;2073355;28;20208;-68
2023/07/04 01:41:35;;;;;;;9.47;5.07;;;;;;;19.86;100.00;101101.16;2071751;28;20189;-68
2023/07/04 01:42:36;;;;;;;6.70;5.23;;;;;;;20.52;100.00;101197.25;2071966;28;20427;-68
2023/07/04 01:43:36;;;;;;;7.73;4.70;;;;;;;20.22;100.00;101142.22;2071675;28;21035;-68
2023/07/04 01:44:38;;;;;;;7.83;4.57;;;;;;;20.51;100.00;101202.09;2071450;28;20228;-68
2023/07/04 01:45:38;;;;;;;8.43;4.80;;;;;;;20.50;100.00;101196.94;2071511;28;20212;-68
2023/07/04 01:46:39;;;;;;;9.60;4.43;;;;;;;20.19;100.00;101143.19;2071692;28;20443;-68
2023/07/04 01:47:40;;;;;;;8.57;4.27;;;;;;;19.84;100.00;101094.44;2071714;28;20209;-68
2023/07/04 01:48:41;;;;;;;8.50;5.03;;;;;;;20.43;100.00;101192.50;2073088;28;20174;-68
2023/07/04 01:49:41;;;;;;;12.37;5.00;;;;;;;20.42;100.00;101187.34;2079431;28;20332;-68
2023/07/04 01:50:42;;;;;;;10.30;5.27;;;;;;;20.43;100.00;101188.88;2072271;28;20423;-68
2023/07/04 01:51:42;;;;;;;14.57;5.87;;;;;;;20.44;100.00;101185.59;2071607;28;20209;-68
2023/07/04 01:52:43;;;;;;;13.70;5.27;;;;;;;20.45;100.00;101189.97;2071762;28;20197;-68
2023/07/04 01:53:43;;;;;;;10.60;5.10;;;;;;;20.45;100.00;101184.31;2071690;28;20225;-68
2023/07/04 01:54:44;;;;;;;12.33;4.97;;;;;;;20.32;100.00;101158.50;2070689;28;20197;-68
2023/07/04 01:55:44;;;;;;;6.87;4.37;;;;;;;20.42;100.00;101167.63;2071914;28;20332;-68
2023/07/04 01:56:48;;;;;;;6.80;4.03;;;;;;;20.46;100.00;101185.88;2071554;28;20181;-68
2023/07/04 01:57:48;;;;;;;8.07;4.93;;;;;;;20.46;100.00;101185.13;2071825;28;20173;-68
2023/07/04 01:58:49;;;;;;;7.07;4.37;;;;;;;20.45;100.00;101183.53;2071229;28;20428;-68
2023/07/04 01:59:49;;;;;;;5.23;4.40;;;;;;;20.43;100.00;101188.88;2071755;28;20244;-68
2023/07/04 02:00:50;;;;;;;7.33;4.80;;;;;;;20.11;100.00;101145.59;2071614;28;20189;-68
2023/07/04 02:01:50;;;;;;;8.20;5.07;;;;;;;20.40;100.00;101187.81;2071607;28;20252;-68
2023/07/04 02:02:50;;;;;;;6.83;4.70;;;;;;;20.06;100.00;101140.63;2071562;28;20647;-68
2023/07/04 02:03:51;;;;;;;6.70;3.70;;;;;;;20.19;100.00;101166.47;2071742;28;20205;-68
2023/07/04 02:04:52;;;;;;;8.13;4.17;;;;;;;19.93;100.00;101128.13;2071177;28;20261;-68
2023/07/04 02:05:56;;;;;;;6.40;4.03;;;;;;;19.59;100.00;101076.13;2072980;28;20244;-68
2023/07/04 02:06:57;;;;;;;9.13;4.70;;;;;;;20.27;100.00;101197.81;2079041;28;20169;-68
2023/07/04 02:07:58;;;;;;;11.27;5.13;;;;;;;19.79;100.00;101124.03;2072512;28;20479;-68
2023/07/04 02:08:59;;;;;;;13.57;5.47;;;;;;;20.18;100.00;101187.44;2071077;28;20193;-68
2023/07/04 02:09:59;;;;;;;9.83;5.40;;;;;;;20.10;100.00;101189.09;2071387;28;20444;-68
2023/07/04 02:11:00;;;;;;;10.27;4.97;;;;;;;20.08;100.00;101185.19;2071633;28;20198;-68
2023/07/04 02:12:00;;;;;;;8.67;5.33;;;;;;;19.63;100.00;101120.91;2076050;28;20268;-68
2023/07/04 02:13:00;;;;;;;7.93;5.03;;;;;;;19.50;100.00;101111.97;2076474;28;20221;-68
2023/07/04 02:14:01;;;;;;;11.73;5.53;;;;;;;20.04;100.00;101190.19;2073679;28;20178;-68
2023/07/04 02:15:01;;;;;;;12.97;4.97;;;;;;;20.02;100.00;101187.09;2074868;28;20651;-68
2023/07/04 02:16:02;;;;;;;13.30;5.50;;;;;;;20.03;100.00;101186.63;2081908;28;20645;-68
2023/07/04 02:17:02;;;;;;;12.60;5.37;;;;;;;20.05;100.00;101186.16;2073225;28;20205;-68
2023/07/04 02:18:03;;;;;;;10.63;4.90;;;;;;;20.03;100.00;101181.00;2073033;28;20205;-68
2023/07/04 02:19:04;;;;;;;9.67;5.33;;;;;;;19.29;100.00;101080.13;2073204;28;20674;-68
2023/07/04 02:20:05;;;;;;;8.53;4.87;;;;;;;20.02;100.00;101187.91;2072823;28;20316;-68
2023/07/04 02:21:06;;;;;;;9.10;5.20;;;;;;;19.59;100.00;101126.72;2073029;28;20340;-68
2023/07/04 02:22:07;;;;;;;7.27;4.93;;;;;;;19.94;100.00;101183.09;2072894;28;20482;-68
2023/07/04 02:23:07;;;;;;;9.60;5.07;;;;;;;19.93;100.00;101181.56;2072679;28;20666;-68
2023/07/04 02:24:08;;;;;;;8.93;5.20;;;;;;;19.40;100.00;101102.81;2072759;28;20197;-69
2023/07/04 02:25:09;;;;;;;6.80;4.97;;;;;;;19.59;100.00;101146.41;2073505;28;20184;-68
2023/07/04 02:26:11;;;;;;;8.60;4.80;;;;;;;19.89;100.00;101186.59;2072936;28;20193;-68
2023/07/04 02:27:11;;;;;;;9.83;5.37;;;;;;;19.82;100.00;101168.09;2079653;28;20475;-68
2023/07/04 02:28:12;;;;;;;9.93;4.87;;;;;;;19.90;100.00;101180.50;2075884;28;20505;-68
2023/07/04 02:29:12;;;;;;;7.10;5.27;;;;;;;19.87;100.00;101187.09;2073199;28;20678;-68
2023/07/04 02:30:13;;;;;;;11.13;5.60;;;;;;;19.51;100.00;101136.81;2072541;28;20281;-68
2023/07/04 02:31:14;;;;;;;13.27;5.47;;;;;;;19.40;100.00;101122.50;2073071;28;20176;-68
2023/07/04 02:32:15;;;;;;;14.57;6.10;;;;;;;19.74;100.00;101175.31;2072767;28;20181;-68
2023/07/04 02:33:15;;;;;;;16.37;6.47;;;;;;;19.91;100.00;101192.53;2073721;28;20412;-68
2023/07/04 02:34:16;;;;;;;16.23;6.00;;;;;;;19.93;100.00;101201.25;2073004;28;20625;-68
2023/07/04 02:35:16;;;;;;;15.40;5.77;;;;;;;19.19;100.00;101083.47;2072727;28;20685;-68
2023/07/04 02:36:17;;;;;;;13.17;5.70;;;;;;;19.71;100.00;101170.66;2072895;28;20309;-68
2023/07/04 02:37:17;;;;;;;11.97;6.67;;;;;;;19.87;100.00;101183.50;2073111;28;20275;-68
2023/07/04 02:38:18;;;;;;;14.53;5.87;;;;;;;19.91;100.00;101189.72;2072035;28;20222;-68
2023/07/04 02:39:19;;;;;;;13.23;5.47;;;;;;;19.89;100.00;101192.22;2073109;28;20188;-68
2023/07/04 02:40:19;;;;;;;17.53;5.80;;;;;;;19.38;100.00;101113.00;2073640;28;20456;-68
2023/07/04 02:41:20;;;;;;;17.60;6.07;;;;;;;19.91;100.00;101186.91;2080183;28;20218;-68
2023/07/04 02:42:21;;;;;;;15.93;6.47;;;;;;;19.87;100.00;101189.91;2073514;28;20575;-68
2023/07/04 02:43:21;;;;;;;16.67;5.80;;;;;;;19.59;100.00;101143.59;2072731;28;20197;-68
2023/07/04 02:44:21;;;;;;;16.40;5.90;;;;;;;19.89;100.00;101189.41;2072621;28;20203;-68
2023/07/04 02:45:22;;;;;;;19.33;6.03;;;;;;;19.90;100.00;101190.97;2077534;28;20227;-68
2023/07/04 02:46:22;;;;;;;13.37;5.80;;;;;;;19.87;100.00;101189.13;2077024;28;20283;-68
2023/07/04 02:47:26;;;;;;;16.60;5.97;;;;;;;19.93;100.00;101198.44;2072196;28;20193;-68
2023/07/04 02:48:26;;;;;;;15.67;5.80;;;;;;;19.94;100.00;101194.34;2072141;28;20293;-68
2023/07/04 02:49:27;;;;;;;11.30;5.80;;;;;;;19.94;100.00;101202.81;2073591;28;20595;-68
2023/07/04 02:50:27;;;;;;;16.77;6.13;;;;;;;19.96;100.00;101198.25;2081581;28;20235;-68
2023/07/04 02:51:27;;;;;;;13.53;6.13;;;;;;;19.98;100.00;101207.00;2073264;28;20491;-68
2023/07/04 02:52:30;;;;;;;12.50;5.93;;;;;;;19.99;100.00;101211.34;2078853;28;20210;-68
2023/07/04 02:53:30;;;;;;;16.07;6.33;;;;;;;20.01;100.00;101206.00;2079546;28;20215;-68
2023/07/04 02:54:31;;;;;;;11.87;6.00;;;;;;;19.96;100.00;101211.56;2080037;28;20937;-69
2023/07/04 02:55:31;;;;;;;11.60;6.67;;;;;;;19.43;100.00;101129.19;2073132;28;20624;-68
2023/07/04 02:56:32;;;;;;;12.87;5.20;;;;;;;19.86;100.00;101208.03;2072864;28;20255;-68
2023/07/04 02:57:32;;;;;;;12.17;5.70;;;;;;;19.73;100.00;101212.38;2072833;28;20232;-68
2023/07/04 02:58:32;;;;;;;15.37;5.83;;;;;;;19.70;100.00;101213.34;2072465;28;20201;-68
2023/07/04 02:59:33;;;;;;;15.77;6.20;;;;;;;19.70;100.00;101216.91;2072657;28;20189;-68
2023/07/04 03:00:35;;;;;;;11.20;6.47;;;;;;;19.67;100.00;101217.09;2072380;28;20217;-68
2023/07/04 03:01:35;;;;;;;13.33;6.40;;;;;;;19.68;100.00;101219.44;2072670;28;20178;-68
2023/07/04 03:02:36;;;;;;;16.97;6.90;;;;;;;19.71;100.00;101215.66;2072454;28;20420;-68
2023/07/04 03:03:36;;;;;;;14.50;5.80;;;;;;;19.74;100.00;101219.53;2073559;28;20188;-68
2023/07/04 03:04:37;;;;;;;16.80;6.10;;;;;;;19.52;100.00;101190.97;2072467;28;20204;-68
2023/07/04 03:05:37;;;;;;;14.13;6.57;;;;;;;19.75;100.00;101221.09;2079170;28;20223;-69
2023/07/04 03:06:38;;;;;;;11.17;6.20;;;;;;;19.75;100.00;101227.50;2074722;28;20203;-68
2023/07/04 03:07:38;;;;;;;11.93;6.63;;;;;;;19.75;100.00;101223.91;2072719;28;20217;-68
2023/07/04 03:08:39;;;;;;;10.33;6.63;;;;;;;19.67;100.00;101219.91;2072526;28;20198;-68
2023/07/04 03:09:40;;;;;;;17.13;7.03;;;;;;;19.70;100.00;101227.41;2072663;28;20182;-68
2023/07/04 03:10:43;;;;;;;18.30;6.60;;;;;;;19.68;100.00;101230.69;2072392;28;20188;-68
2023/07/04 03:11:44;;;;;;;10.77;6.20;;;;;;;19.76;100.00;101233.91;2072530;28;20957;-68
2023/07/04 03:12:44;;;;;;;6.63;5.53;;;;;;;19.78;100.00;101226.53;2073327;28;20902;-68
2023/07/04 03:13:44;;;;;;;9.03;5.60;;;;;;;19.78;100.00;101229.34;2072615;28;20290;-68
2023/07/04 03:14:45;;;;;;;9.23;5.83;;;;;;;19.57;100.00;101198.75;2076070;28;20192;-68
2023/07/04 03:15:45;;;;;;;9.97;6.07;;;;;;;19.80;100.00;101234.50;2075904;28;20192;-68
2023/07/04 03:16:46;;;;;;;11.10;5.70;;;;;;;19.81;100.00;101234.00;2072626;28;20303;-68
2023/07/04 03:17:47;;;;;;;9.43;6.03;;;;;;;19.80;100.00;101235.28;2072761;28;20201;-68
2023/07/04 03:18:48;;;;;;;8.13;5.07;;;;;;;19.80;100.00;101232.44;2072418;28;20189;-68
2023/07/04 03:19:48;;;;;;;14.03;5.87;;;;;;;19.79;100.00;101230.13;2072564;28;20502;-68
2023/07/04 03:20:49;;;;;;;11.17;5.77;;;;;;;19.80;100.00;101226.06;2072457;28;20202;-68
2023/07/04 03:21:49;;;;;;;11.53;5.67;;;;;;;19.78;100.00;101231.38;2072426;28;20196;-68
2023/07/04 03:22:49;;;;;;;11.13;5.33;;;;;;;19.28;100.00;101160.06;2072421;28;20261;-68
2023/07/04 03:23:50;;;;;;;9.37;5.93;;;;;;;19.79;100.00;101238.56;2078040;28;20185;-68
2023/07/04 03:24:50;;;;;;;9.30;5.27;;;;;;;19.76;100.00;101242.34;2076332;28;20193;-68
2023/07/04 03:25:51;;;;;;;9.13;5.20;;;;;;;19.51;100.00;101215.50;2075236;28;20586;-68
2023/07/04 03:26:52;;;;;;;8.33;5.67;;;;;;;19.50;100.00;101199.13;2078564;28;20570;-68
2023/07/04 03:27:52;;;;;;;12.57;5.40;;;;;;;19.72;100.00;101234.09;2072618;28;20213;-68
2023/07/04 03:28:53;;;;;;;12.80;5.40;;;;;;;19.83;100.00;101241.97;2073322;28;20921;-68
2023/07/04 03:29:53;;;;;;;13.67;5.27;;;;;;;19.89;100.00;101242.84;2073116;28;20775;-68
2023/07/04 03:30:54;;;;;;;9.53;5.33;;;;;;;19.90;100.00;101242.38;2080705;28;20192;-68
2023/07/04 03:31:54;;;;;;;11.10;6.37;;;;;;;19.94;100.00;101236.56;2080589;28;20276;-68
2023/07/04 03:32:55;;;;;;;17.80;6.20;;;;;;;19.98;100.00;101248.41;2076034;28;20204;-68
2023/07/04 03:33:55;;;;;;;12.57;5.47;;;;;;;19.81;100.00;101213.56;2072319;28;20199;-66
2023/07/04 03:35:00;;;;;;;12.90;5.53;;;;;;;19.58;100.00;101178.59;2071429;28;20288;-68
2023/07/04 03:36:01;;;;;;;9.17;5.53;;;;;;;20.05;100.00;101231.94;2072394;28;20170;-68
2023/07/04 03:37:01;;;;;;;7.97;4.83;;;;;;;19.94;100.00;101219.69;2072531;28;20504;-68
2023/07/04 03:38:02;;;;;;;6.43;4.90;;;;;;;20.04;100.00;101233.19;2073178;28;20178;-68
2023/07/04 03:39:03;;;;;;;7.67;4.90;;;;;;;20.04;100.00;101230.38;2072492;28;20201;-68
2023/07/04 03:40:07;;;;;;;7.10;4.90;;;;;;;19.98;100.00;101232.31;2072452;28;20254;-68
2023/07/04 03:41:08;;;;;;;7.43;4.60;;;;;;;19.99;100.00;101233.88;2080318;28;20472;-68
2023/07/04 03:42:08;;;;;;;7.23;5.50;;;;;;;19.88;100.00;101215.97;2075329;28;20498;-68
2023/07/04 03:43:09;;;;;;;10.63;5.33;;;;;;;19.99;100.00;101228.25;2076307;28;20295;-68
2023/07/04 03:44:09;;;;;;;10.00;5.53;;;;;;;20.09;100.00;101234.56;2077702;28;20232;-68
2023/07/04 03:45:10;;;;;;;8.33;4.87;;;;;;;19.74;100.00;101186.56;2072053;28;20201;-68
2023/07/04 03:46:11;;;;;;;6.90;4.47;;;;;;;20.09;100.00;101232.56;2072286;28;20216;-68
2023/07/04 03:47:11;;;;;;;12.00;4.80;;;;;;;20.08;100.00;101224.59;2073221;28;20420;-68
2023/07/04 03:48:12;;;;;;;8.20;5.23;;;;;;;19.23;100.00;101092.50;2072253;28;20185;-68
2023/07/04 03:49:12;;;;;;;10.47;5.27;;;;;;;19.58;100.00;101150.47;2071766;28;20197;-68
2023/07/04 03:50:13;;;;;;;11.03;5.20;;;;;;;20.12;100.00;101240.00;2071735;28;20267;-68
2023/07/04 03:51:13;;;;;;;7.40;5.23;;;;;;;20.16;100.00;101239.84;2072666;28;20663;-68
2023/07/04 03:52:14;;;;;;;11.97;5.30;;;;;;;20.19;100.00;101236.84;2071497;28;20216;-68
2023/07/04 03:53:14;;;;;;;10.03;5.13;;;;;;;20.19;100.00;101236.03;2071734;28;20230;-68
2023/07/04 03:54:16;;;;;;;11.20;5.30;;;;;;;20.24;100.00;101243.81;2072258;28;20186;-68
2023/07/04 03:55:16;;;;;;;13.07;6.90;;;;;;;20.25;100.00;101245.38;2072711;28;20181;-68
2023/07/04 03:56:17;;;;;;;17.10;7.27;;;;;;;20.12;100.00;101225.94;2072068;28;20436;-68
2023/07/04 03:57:17;;;;;;;17.37;7.27;;;;;;;20.18;100.00;101228.88;2072401;28;20193;-68
2023/07/04 03:58:18;;;;;;;16.27;6.90;;;;;;;20.38;100.00;101257.91;2072131;28;20198;-68
2023/07/04 03:59:18;;;;;;;11.13;5.80;;;;;;;20.36;100.00;101245.59;2072565;28;20193;-68
2023/07/04 04:00:19;;;;;;;8.03;4.77;;;;;;;20.42;100.00;101255.66;2071902;28;20206;-68
2023/07/04 04:01:20;;;;;;;11.63;5.73;;;;;;;20.44;100.00;101255.19;2074594;28;20268;-68
2023/07/04 04:02:20;;;;;;;7.77;4.87;;;;;;;20.42;100.00;101240.84;2078867;28;20662;-68
2023/07/04 04:03:21;;;;;;;11.43;5.23;;;;;;;20.47;100.00;101263.44;2072050;28;20857;-68
2023/07/04 04:04:21;;;;;;;13.27;5.23;;;;;;;20.49;100.00;101260.13;2072877;28;20192;-68
2023/07/04 04:05:22;;;;;;;10.70;5.20;;;;;;;20.51;100.00;101258.41;2074300;28;20189;-68
2023/07/04 04:06:22;;;;;;;10.50;5.67;;;;;;;20.52;100.00;101257.13;2080261;28;20204;-68
2023/07/04 04:07:23;;;;;;;8.67;4.90;;;;;;;20.50;100.00;101258.88;2075736;28;20998;-68
2023/07/04 04:08:24;;;;;;;9.97;5.07;;;;;;;20.49;100.00;101255.31;2076146;28;20193;-68
2023/07/04 04:09:24;;;;;;;8.97;4.70;;;;;;;20.58;100.00;101258.00;2080381;28;20231;-68
2023/07/04 04:10:24;;;;;;;7.40;4.80;;;;;;;20.61;100.00;101256.25;2078232;28;20184;-69
2023/07/04 04:11:25;;;;;;;7.17;4.87;;;;;;;20.55;100.00;101261.00;2072348;28;20178;-68
2023/07/04 04:12:25;;;;;;;8.17;5.07;;;;;;;20.57;100.00;101256.44;2081074;28;20454;-68
2023/07/04 04:13:26;;;;;;;5.27;4.47;;;;;;;20.23;100.00;101200.84;2073147;28;20712;-68
2023/07/04 04:14:30;;;;;;;6.87;4.67;;;;;;;20.35;100.00;101221.50;2073487;28;20289;-68
2023/07/04 04:15:30;;;;;;;5.60;4.73;;;;;;;20.59;100.00;101268.03;2073506;28;20483;-68
2023/07/04 04:16:30;;;;;;;7.97;5.00;;;;;;;20.58;100.00;101260.81;2071386;28;20973;-68
2023/07/04 04:17:31;;;;;;;6.80;4.77;;;;;;;20.52;100.00;101250.75;2074958;28;20235;-68
2023/07/04 04:18:31;;;;;;;5.90;4.40;;;;;;;20.58;100.00;101258.00;2077345;28;20184;-68
2023/07/04 04:19:32;;;;;;;6.43;4.90;;;;;;;20.64;100.00;101261.72;2072194;28;20257;-68
2023/07/04 04:20:33;;;;;;;7.80;4.90;;;;;;;20.65;100.00;101268.09;2071973;28;20232;-68
2023/07/04 04:21:34;;;;;;;8.03;4.80;;;;;;;20.67;100.00;101262.78;2072854;28;20174;-68
2023/07/04 04:22:34;;;;;;;8.37;5.20;;;;;;;20.70;100.00;101261.78;2072183;28;20522;-68
2023/07/04 04:23:35;;;;;;;6.57;4.83;;;;;;;20.68;100.00;101269.94;2072158;28;20201;-68
2023/07/04 04:24:37;;;;;;;5.53;4.40;;;;;;;20.71;100.00;101274.59;2071860;28;20240;-68
2023/07/04 04:25:38;;;;;;;5.87;5.00;;;;;;;20.75;100.00;101278.00;2071940;28;20200;-68
2023/07/04 04:26:40;;;;;;;6.70;4.70;;;;;;;20.74;100.00;101274.44;2072155;28;20451;-68
2023/07/04 04:27:41;;;;;;;6.53;4.70;;;;;;;20.39;100.00;101219.25;2071900;28;20174;-68
2023/07/04 04:28:41;;;;;;;7.53;4.90;;;;;;;20.40;100.00;101210.34;2072059;28;20424;-68
2023/07/04 04:29:42;;;;;;;6.70;4.80;;;;;;;20.89;100.00;101271.59;2072897;28;20470;-68
2023/07/04 04:30:43;;;;;;;8.67;5.00;;;;;;;20.88;100.00;101265.16;2072070;28;20666;-68
2023/07/04 04:31:47;;;;;;;7.10;5.07;;;;;;;20.94;100.00;101280.13;2078001;28;20204;-68
2023/07/04 04:32:47;;;;;;;7.07;4.57;;;;;;;20.95;100.00;101272.47;2074067;28;20190;-68
2023/07/04 04:33:47;;;;;;;9.13;4.80;;;;;;;20.50;100.00;101205.38;2071993;28;20451;-68
2023/07/04 04:34:48;;;;;;;6.23;4.53;;;;;;;21.03;100.00;101274.41;2071563;28;20667;-68
2023/07/04 04:35:49;;;;;;;7.90;5.20;;;;;;;20.66;100.00;101239.47;2071994;28;20670;-68
2023/07/04 04:36:49;;;;;;;6.67;4.70;;;;;;;20.96;100.00;101276.84;2070069;28;20568;-68
2023/07/04 04:37:50;;;;;;;8.87;4.90;;;;;;;21.07;100.00;101274.97;2072683;28;20188;-68
2023/07/04 04:38:50;;;;;;;8.70;5.20;;;;;;;20.90;100.00;101239.34;2075529;28;20573;-68
2023/07/04 04:39:50;;;;;;;7.33;4.60;;;;;;;21.18;100.00;101277.22;2078435;28;20192;-68
2023/07/04 04:40:51;;;;;;;6.30;4.90;;;;;;;21.20;100.00;101274.66;2078090;28;20196;-68
2023/07/04 04:41:52;;;;;;;6.03;4.70;;;;;;;20.66;100.00;101202.84;2078012;28;20275;-68